Time;durP1;ratioP1;P1;durP2;ratioP2;P2;SDS_P1;SDS_P2;PMS_P1;PMS_P2;Temp;Humidity;BMP_temperature;BMP_pressure;BME280_temperature;BME280_humidity;BME280_pressure;Samples;Min_cycle;Max_cycle;Signal;HPM_P1;HPM_P2
2022/03/04 00:00:27;;;;;;;1.83;1.83;;;;;;;;;;4992380;28;20782;-59
2022/03/04 00:02:54;;;;;;;1.50;1.50;;;;;;;;;;4993374;28;20206;-59
2022/03/04 00:05:20;;;;;;;1.60;1.60;;;;;;;;;;4993114;28;20177;-59
2022/03/04 00:07:46;;;;;;;1.97;1.97;;;;;;;;;;4992971;28;20578;-58
2022/03/04 00:10:12;;;;;;;2.80;2.70;;;;;;;;;;4992579;28;20437;-59
2022/03/04 00:12:38;;;;;;;1.87;1.87;;;;;;;;;;4993080;28;20486;-60
2022/03/04 00:15:04;;;;;;;1.30;1.30;;;;;;;;;;4992916;28;20420;-59
2022/03/04 00:17:30;;;;;;;1.90;1.90;;;;;;;;;;4992434;28;20185;-59
2022/03/04 00:19:56;;;;;;;2.07;2.00;;;;;;;;;;4992668;28;20764;-59
2022/03/04 00:22:22;;;;;;;1.53;1.53;;;;;;;;;;4992613;28;21038;-58
2022/03/04 00:24:48;;;;;;;1.55;1.55;;;;;;;;;;4993452;28;20410;-59
2022/03/04 00:27:14;;;;;;;1.53;1.53;;;;;;;;;;4992563;28;20252;-59
2022/03/04 00:29:40;;;;;;;1.60;1.60;;;;;;;;;;4992595;28;20543;-57
2022/03/04 00:32:06;;;;;;;1.87;1.87;;;;;;;;;;4992616;28;20401;-56
2022/03/04 00:34:32;;;;;;;1.75;1.75;;;;;;;;;;4975390;28;20465;-59
2022/03/04 00:36:58;;;;;;;1.87;1.87;;;;;;;;;;4992322;28;20253;-59
2022/03/04 00:39:24;;;;;;;1.73;1.73;;;;;;;;;;4992468;28;20452;-59
2022/03/04 00:41:50;;;;;;;1.90;1.90;;;;;;;;;;4992258;28;20503;-59
2022/03/04 00:44:16;;;;;;;1.90;1.90;;;;;;;;;;4992631;28;20770;-58
2022/03/04 00:46:42;;;;;;;1.57;1.57;;;;;;;;;;4992670;28;20405;-58
2022/03/04 00:49:07;;;;;;;2.20;2.10;;;;;;;;;;4992128;28;20433;-59
2022/03/04 00:51:33;;;;;;;2.10;2.10;;;;;;;;;;4991729;28;20524;-59
2022/03/04 00:54:00;;;;;;;1.92;1.92;;;;;;;;;;4992500;28;20896;-59
2022/03/04 00:56:25;;;;;;;1.77;1.77;;;;;;;;;;4992347;28;20642;-58
2022/03/04 00:58:51;;;;;;;2.00;2.00;;;;;;;;;;4992205;28;20229;-59
2022/03/04 01:01:17;;;;;;;2.30;2.20;;;;;;;;;;4991726;28;20445;-59
2022/03/04 01:03:43;;;;;;;2.37;2.30;;;;;;;;;;4992146;28;20565;-59
2022/03/04 01:06:09;;;;;;;1.37;1.37;;;;;;;;;;4991970;28;20492;-59
2022/03/04 01:08:35;;;;;;;1.53;1.53;;;;;;;;;;4991837;28;20952;-59
2022/03/04 01:11:01;;;;;;;1.33;1.33;;;;;;;;;;4991374;28;20442;-58
2022/03/04 01:13:27;;;;;;;2.13;2.10;;;;;;;;;;4992144;28;20905;-59
2022/03/04 01:15:54;;;;;;;1.60;1.60;;;;;;;;;;4992023;28;20174;-58
2022/03/04 01:18:21;;;;;;;1.65;1.65;;;;;;;;;;4991933;28;20421;-59
2022/03/04 01:20:47;;;;;;;1.58;1.58;;;;;;;;;;4991806;28;20201;-59
2022/03/04 01:23:13;;;;;;;1.50;1.50;;;;;;;;;;4991160;28;20202;-59
2022/03/04 01:25:39;;;;;;;1.60;1.60;;;;;;;;;;4991425;28;20186;-59
2022/03/04 01:28:05;;;;;;;2.50;2.40;;;;;;;;;;4991786;28;20256;-58
2022/03/04 01:30:31;;;;;;;1.67;1.67;;;;;;;;;;4991521;28;20237;-58
2022/03/04 01:32:57;;;;;;;1.67;1.67;;;;;;;;;;4991755;28;20437;-59
2022/03/04 01:35:23;;;;;;;1.40;1.40;;;;;;;;;;4991763;28;20436;-58
2022/03/04 01:37:49;;;;;;;2.75;2.65;;;;;;;;;;4991312;28;20193;-59
2022/03/04 01:40:15;;;;;;;3.45;3.25;;;;;;;;;;4990915;28;20319;-59
2022/03/04 01:42:41;;;;;;;2.42;2.33;;;;;;;;;;4991651;28;20202;-57
2022/03/04 01:45:09;;;;;;;1.65;1.65;;;;;;;;;;4991513;28;20182;-58
2022/03/04 01:47:35;;;;;;;0.90;0.90;;;;;;;;;;4991532;28;20206;-57
2022/03/04 01:50:02;;;;;;;1.27;1.27;;;;;;;;;;4991309;28;20221;-60
2022/03/04 01:52:28;;;;;;;1.13;1.13;;;;;;;;;;4991048;28;20189;-57
2022/03/04 01:54:54;;;;;;;1.50;1.50;;;;;;;;;;4991225;28;20179;-59
2022/03/04 01:57:20;;;;;;;1.47;1.47;;;;;;;;;;4991639;28;20422;-59
2022/03/04 01:59:46;;;;;;;1.40;1.40;;;;;;;;;;4991098;28;20453;-59
2022/03/04 02:02:12;;;;;;;1.70;1.70;;;;;;;;;;4991098;28;20472;-60
2022/03/04 02:04:38;;;;;;;1.52;1.52;;;;;;;;;;4991475;28;20550;-58
2022/03/04 02:07:04;;;;;;;1.90;1.90;;;;;;;;;;4991179;28;20175;-59
2022/03/04 02:09:30;;;;;;;2.42;2.33;;;;;;;;;;4991000;28;20202;-57
2022/03/04 02:11:56;;;;;;;1.87;1.87;;;;;;;;;;4991135;28;20658;-59
2022/03/04 02:14:22;;;;;;;1.67;1.67;;;;;;;;;;4991258;28;20456;-58
2022/03/04 02:16:51;;;;;;;1.67;1.67;;;;;;;;;;4990725;28;20433;-55
2022/03/04 02:19:18;;;;;;;2.33;2.22;;;;;;;;;;4991181;28;20852;-55
2022/03/04 02:21:53;;;;;;;2.88;2.78;;;;;;;;;;4990827;28;20193;-58
2022/03/04 02:24:19;;;;;;;2.05;2.05;;;;;;;;;;4994746;28;20185;-58
2022/03/04 02:26:46;;;;;;;2.58;2.47;;;;;;;;;;4995046;28;20205;-56
2022/03/04 02:29:12;;;;;;;2.72;2.63;;;;;;;;;;4994301;28;20191;-56
2022/03/04 02:31:38;;;;;;;2.30;2.20;;;;;;;;;;4994379;28;20189;-58
2022/03/04 02:34:05;;;;;;;2.60;2.50;;;;;;;;;;4993267;28;20554;-58
2022/03/04 02:36:32;;;;;;;2.55;2.45;;;;;;;;;;4994113;28;20174;-54
2022/03/04 02:38:57;;;;;;;2.35;2.25;;;;;;;;;;4993273;28;20200;-58
2022/03/04 02:41:24;;;;;;;3.10;3.00;;;;;;;;;;4993824;28;20265;-55
2022/03/04 02:43:50;;;;;;;2.90;2.80;;;;;;;;;;4994624;28;20468;-59
2022/03/04 02:46:16;;;;;;;2.33;2.25;;;;;;;;;;4994420;28;20189;-59
2022/03/04 02:48:42;;;;;;;2.80;2.70;;;;;;;;;;4994066;28;20670;-55
2022/03/04 02:51:08;;;;;;;2.78;2.67;;;;;;;;;;4994074;28;20733;-57
2022/03/04 02:53:34;;;;;;;2.00;1.98;;;;;;;;;;4994744;28;20174;-58
2022/03/04 02:56:00;;;;;;;2.20;2.10;;;;;;;;;;4993562;28;20269;-58
2022/03/04 02:58:26;;;;;;;2.23;2.20;;;;;;;;;;4994511;28;20723;-58
2022/03/04 03:00:52;;;;;;;1.67;1.67;;;;;;;;;;4993438;28;20445;-54
2022/03/04 03:03:18;;;;;;;2.30;2.30;;;;;;;;;;4993961;28;20241;-59
2022/03/04 03:05:44;;;;;;;1.70;1.70;;;;;;;;;;4993984;28;20252;-58
2022/03/04 03:08:10;;;;;;;2.28;2.28;;;;;;;;;;4994073;28;20247;-56
2022/03/04 03:10:36;;;;;;;2.28;2.28;;;;;;;;;;4993437;28;20577;-58
2022/03/04 03:13:02;;;;;;;1.90;1.90;;;;;;;;;;4994109;28;20662;-58
2022/03/04 03:15:28;;;;;;;3.50;3.40;;;;;;;;;;4994227;28;20181;-55
2022/03/04 03:17:55;;;;;;;2.55;2.45;;;;;;;;;;4993368;28;20476;-58
2022/03/04 03:20:21;;;;;;;4.10;3.90;;;;;;;;;;4992977;28;20720;-58
2022/03/04 03:22:47;;;;;;;2.50;2.40;;;;;;;;;;4993115;28;20210;-57
2022/03/04 03:25:13;;;;;;;2.13;2.05;;;;;;;;;;4984215;28;20266;-59
2022/03/04 03:27:39;;;;;;;2.10;2.03;;;;;;;;;;4993683;28;20688;-59
2022/03/04 03:30:06;;;;;;;2.45;2.35;;;;;;;;;;4993379;28;20481;-57
2022/03/04 03:32:33;;;;;;;1.88;1.88;;;;;;;;;;4993747;28;20233;-57
2022/03/04 03:34:59;;;;;;;1.27;1.27;;;;;;;;;;4974881;28;20318;-58
2022/03/04 03:37:25;;;;;;;1.10;1.10;;;;;;;;;;4993254;28;20183;-57
2022/03/04 03:39:51;;;;;;;1.10;1.10;;;;;;;;;;4993897;28;20240;-57
2022/03/04 03:42:17;;;;;;;1.35;1.35;;;;;;;;;;4992426;28;20468;-57
2022/03/04 03:44:43;;;;;;;1.20;1.20;;;;;;;;;;4993498;28;20174;-59
2022/03/04 03:47:09;;;;;;;1.23;1.23;;;;;;;;;;4993238;28;20517;-59
2022/03/04 03:52:26;;;;;;;1.40;1.40;;;;;;;;;;4953971;28;20513;-61
2022/03/04 03:54:52;;;;;;;1.00;1.00;;;;;;;;;;4955012;28;20703;-61
2022/03/04 03:57:18;;;;;;;1.10;1.10;;;;;;;;;;4955125;28;20184;-62
2022/03/04 03:59:44;;;;;;;1.80;1.80;;;;;;;;;;4965294;28;20934;-62
2022/03/04 04:02:10;;;;;;;1.50;1.50;;;;;;;;;;4971552;28;20509;-61
2022/03/04 04:04:36;;;;;;;1.50;1.50;;;;;;;;;;4956015;28;20815;-61
2022/03/04 04:07:06;;;;;;;1.20;1.20;;;;;;;;;;4955403;28;20859;-62
2022/03/04 04:09:32;;;;;;;1.10;1.10;;;;;;;;;;4964459;28;20184;-61
2022/03/04 04:11:59;;;;;;;1.20;1.20;;;;;;;;;;4955310;28;20753;-62
2022/03/04 04:14:26;;;;;;;1.05;1.05;;;;;;;;;;4971158;28;20175;-62
2022/03/04 04:16:51;;;;;;;1.15;1.15;;;;;;;;;;4957016;28;20179;-60
2022/03/04 04:19:17;;;;;;;0.90;0.90;;;;;;;;;;4955228;28;20187;-62
2022/03/04 04:21:43;;;;;;;1.30;1.30;;;;;;;;;;4957402;28;20211;-60
2022/03/04 04:24:10;;;;;;;1.30;1.30;;;;;;;;;;4954969;28;20466;-62
2022/03/04 04:26:36;;;;;;;1.25;1.25;;;;;;;;;;4957646;28;20780;-61
2022/03/04 04:29:02;;;;;;;1.25;1.25;;;;;;;;;;4955846;28;20172;-60
2022/03/04 04:31:30;;;;;;;1.23;1.23;;;;;;;;;;4963905;28;20207;-61
2022/03/04 04:33:56;;;;;;;1.17;1.17;;;;;;;;;;4960112;28;20470;-61
2022/03/04 04:36:22;;;;;;;1.07;1.07;;;;;;;;;;4955264;28;20307;-60
2022/03/04 04:38:47;;;;;;;1.10;1.10;;;;;;;;;;4953593;28;20511;-63
2022/03/04 04:41:13;;;;;;;1.50;1.50;;;;;;;;;;4953724;28;20586;-61
2022/03/04 04:43:39;;;;;;;1.43;1.43;;;;;;;;;;4957531;28;20466;-61
2022/03/04 04:46:05;;;;;;;1.33;1.33;;;;;;;;;;4960591;28;20462;-62
2022/03/04 04:48:32;;;;;;;1.10;1.10;;;;;;;;;;4959790;28;20757;-61
2022/03/04 04:50:59;;;;;;;1.10;1.10;;;;;;;;;;4957996;28;20775;-61
2022/03/04 04:53:25;;;;;;;1.58;1.58;;;;;;;;;;4956944;28;20181;-62
2022/03/04 04:55:51;;;;;;;1.33;1.33;;;;;;;;;;4966341;28;20188;-61
2022/03/04 04:58:17;;;;;;;1.27;1.27;;;;;;;;;;4954620;28;20199;-62
2022/03/04 05:00:43;;;;;;;1.37;1.37;;;;;;;;;;4952701;28;20455;-63
2022/03/04 05:03:09;;;;;;;1.48;1.48;;;;;;;;;;4956804;28;20804;-60
2022/03/04 05:05:35;;;;;;;1.50;1.50;;;;;;;;;;4971427;28;20190;-61
2022/03/04 05:08:02;;;;;;;1.55;1.55;;;;;;;;;;4970498;28;20183;-61
2022/03/04 05:10:28;;;;;;;1.50;1.50;;;;;;;;;;4967794;28;20200;-60
2022/03/04 05:12:54;;;;;;;1.30;1.30;;;;;;;;;;4957201;28;20198;-61
2022/03/04 05:15:20;;;;;;;1.77;1.77;;;;;;;;;;4953259;28;20431;-62
2022/03/04 05:17:50;;;;;;;1.42;1.42;;;;;;;;;;4952836;28;20469;-61
2022/03/04 05:20:16;;;;;;;1.65;1.65;;;;;;;;;;4953987;28;20255;-63
2022/03/04 05:22:42;;;;;;;1.42;1.42;;;;;;;;;;4967624;28;20218;-62
2022/03/04 05:25:08;;;;;;;1.70;1.70;;;;;;;;;;4965800;28;20547;-60
2022/03/04 05:27:34;;;;;;;1.20;1.20;;;;;;;;;;4959604;28;20418;-62
2022/03/04 05:30:00;;;;;;;1.60;1.60;;;;;;;;;;4962109;28;20207;-62
2022/03/04 05:32:26;;;;;;;1.30;1.30;;;;;;;;;;4971525;28;20419;-62
2022/03/04 05:34:52;;;;;;;1.67;1.67;;;;;;;;;;4971264;28;20422;-61
2022/03/04 05:37:18;;;;;;;2.08;2.05;;;;;;;;;;4966242;28;20420;-63
2022/03/04 05:39:44;;;;;;;2.57;2.47;;;;;;;;;;4952969;28;20187;-62
2022/03/04 05:42:10;;;;;;;2.50;2.40;;;;;;;;;;4954413;28;20963;-63
2022/03/04 05:44:36;;;;;;;1.80;1.80;;;;;;;;;;4955097;28;20946;-62
2022/03/04 05:47:02;;;;;;;5.00;4.80;;;;;;;;;;4955385;28;21002;-61
2022/03/04 05:49:28;;;;;;;1.77;1.77;;;;;;;;;;4959854;28;20942;-62
2022/03/04 05:51:54;;;;;;;1.20;1.20;;;;;;;;;;4966630;28;20217;-62
2022/03/04 05:54:20;;;;;;;2.30;2.20;;;;;;;;;;4954726;28;20466;-62
2022/03/04 05:56:46;;;;;;;1.92;1.92;;;;;;;;;;4966635;28;20876;-63
2022/03/04 05:59:12;;;;;;;2.10;2.00;;;;;;;;;;4966959;28;20279;-62
2022/03/04 06:01:38;;;;;;;1.65;1.65;;;;;;;;;;4957563;28;20447;-62
2022/03/04 06:04:04;;;;;;;1.17;1.17;;;;;;;;;;4968800;28;20639;-61
2022/03/04 06:06:30;;;;;;;1.10;1.10;;;;;;;;;;4957248;28;20949;-61
2022/03/04 06:08:55;;;;;;;1.53;1.53;;;;;;;;;;4956675;29;20180;-61
2022/03/04 06:11:21;;;;;;;2.60;2.50;;;;;;;;;;4956139;28;20458;-62
2022/03/04 06:13:47;;;;;;;1.70;1.70;;;;;;;;;;4963645;28;20494;-62
2022/03/04 06:16:13;;;;;;;2.33;2.23;;;;;;;;;;4968799;28;20267;-62
2022/03/04 06:18:39;;;;;;;1.80;1.80;;;;;;;;;;4961763;28;20431;-62
2022/03/04 06:21:05;;;;;;;2.97;2.87;;;;;;;;;;4956025;29;20607;-61
2022/03/04 06:23:31;;;;;;;3.30;3.20;;;;;;;;;;4966341;28;21184;-62
2022/03/04 06:26:00;;;;;;;4.33;4.17;;;;;;;;;;4957394;28;20176;-61
2022/03/04 06:28:27;;;;;;;3.58;3.45;;;;;;;;;;4957394;28;20425;-62
2022/03/04 06:30:53;;;;;;;4.82;4.63;;;;;;;;;;4964586;28;20191;-62
2022/03/04 06:33:36;;;;;;;3.65;3.55;;;;;;;;;;4957350;28;20190;-62
2022/03/04 06:36:04;;;;;;;5.00;4.80;;;;;;;;;;4959811;28;20271;-62
2022/03/04 06:38:30;;;;;;;3.80;3.70;;;;;;;;;;4956109;29;20308;-62
2022/03/04 06:40:57;;;;;;;3.08;2.97;;;;;;;;;;4956786;28;20207;-62
2022/03/04 06:43:23;;;;;;;3.22;3.13;;;;;;;;;;4956225;29;20203;-62
2022/03/04 06:45:49;;;;;;;3.10;3.00;;;;;;;;;;4961195;28;20245;-62
2022/03/04 06:48:21;;;;;;;3.63;3.53;;;;;;;;;;4963275;28;20183;-62
2022/03/04 06:50:47;;;;;;;3.83;3.63;;;;;;;;;;4956503;28;20336;-62
2022/03/04 06:53:13;;;;;;;3.75;3.65;;;;;;;;;;4956126;29;20180;-61
2022/03/04 06:55:39;;;;;;;5.23;5.03;;;;;;;;;;4956171;29;20187;-62
2022/03/04 06:58:05;;;;;;;7.68;7.38;;;;;;;;;;4957145;28;20430;-60
2022/03/04 07:00:31;;;;;;;5.60;5.30;;;;;;;;;;4955586;29;20775;-62
2022/03/04 07:02:57;;;;;;;4.27;4.17;;;;;;;;;;4957171;28;20497;-61
2022/03/04 07:05:23;;;;;;;5.10;4.90;;;;;;;;;;4975321;28;20438;-63
2022/03/04 07:07:50;;;;;;;1.88;1.88;;;;;;;;;;4959821;28;20596;-62
2022/03/04 07:10:16;;;;;;;5.65;5.28;;;;;;;;;;4957975;28;20199;-62
2022/03/04 07:12:42;;;;;;;3.50;3.40;;;;;;;;;;4957634;28;20186;-62
2022/03/04 07:15:09;;;;;;;3.37;3.27;;;;;;;;;;4973694;28;20187;-62
2022/03/04 07:17:35;;;;;;;3.30;3.20;;;;;;;;;;4961131;28;20442;-62
2022/03/04 07:20:01;;;;;;;3.20;3.10;;;;;;;;;;4955180;29;20203;-61
2022/03/04 07:22:27;;;;;;;3.55;3.45;;;;;;;;;;4955624;29;20238;-62
2022/03/04 07:24:53;;;;;;;4.00;3.90;;;;;;;;;;4956363;28;20231;-62
2022/03/04 07:27:19;;;;;;;3.07;2.97;;;;;;;;;;4955452;29;20176;-61
2022/03/04 07:29:45;;;;;;;5.18;4.85;;;;;;;;;;4956009;28;20454;-61
2022/03/04 07:32:11;;;;;;;1.83;1.83;;;;;;;;;;4955333;29;20206;-62
2022/03/04 07:34:37;;;;;;;2.87;2.77;;;;;;;;;;4955564;28;20427;-63
2022/03/04 07:37:03;;;;;;;3.40;3.20;;;;;;;;;;4955269;29;20423;-61
2022/03/04 07:39:29;;;;;;;3.20;3.10;;;;;;;;;;4961603;28;20510;-62
2022/03/04 07:41:55;;;;;;;3.55;3.35;;;;;;;;;;4955573;28;20203;-61
2022/03/04 07:44:21;;;;;;;2.27;2.20;;;;;;;;;;4961012;28;20555;-62
2022/03/04 07:46:47;;;;;;;2.08;2.05;;;;;;;;;;4953186;28;20463;-61
2022/03/04 07:49:13;;;;;;;4.78;4.47;;;;;;;;;;4950218;28;20699;-63
2022/03/04 07:51:40;;;;;;;2.25;2.15;;;;;;;;;;4946169;29;20219;-61
2022/03/04 07:54:06;;;;;;;2.70;2.60;;;;;;;;;;4952480;29;20188;-62
2022/03/04 07:56:32;;;;;;;2.35;2.25;;;;;;;;;;4956283;28;20219;-62
2022/03/04 07:58:58;;;;;;;3.40;3.20;;;;;;;;;;4958679;28;20172;-62
2022/03/04 08:01:24;;;;;;;3.23;3.13;;;;;;;;;;4955844;29;20327;-62
2022/03/04 08:03:50;;;;;;;3.20;3.10;;;;;;;;;;4956271;29;20514;-62
2022/03/04 08:06:16;;;;;;;3.50;3.33;;;;;;;;;;4956447;29;20430;-62
2022/03/04 08:08:42;;;;;;;2.63;2.53;;;;;;;;;;4953497;29;20180;-60
2022/03/04 08:11:07;;;;;;;2.67;2.57;;;;;;;;;;4953580;29;20591;-60
2022/03/04 08:13:34;;;;;;;2.17;2.07;;;;;;;;;;4953566;28;20530;-61
2022/03/04 08:16:00;;;;;;;3.72;3.53;;;;;;;;;;4953644;29;20431;-61
2022/03/04 08:18:26;;;;;;;2.33;2.22;;;;;;;;;;4954154;29;20529;-62
2022/03/04 08:20:53;;;;;;;3.00;2.90;;;;;;;;;;4953785;28;20208;-62
2022/03/04 08:23:19;;;;;;;2.30;2.30;;;;;;;;;;4954322;29;20477;-61
2022/03/04 08:25:45;;;;;;;2.30;2.25;;;;;;;;;;4954222;29;20531;-61
2022/03/04 08:28:11;;;;;;;2.63;2.53;;;;;;;;;;4954164;29;20656;-61
2022/03/04 08:30:37;;;;;;;3.03;2.92;;;;;;;;;;4953609;29;20629;-62
2022/03/04 08:33:03;;;;;;;3.03;2.92;;;;;;;;;;4954124;29;20184;-62
2022/03/04 08:35:29;;;;;;;3.83;3.65;;;;;;;;;;4954056;29;20274;-62
2022/03/04 08:37:55;;;;;;;4.30;4.10;;;;;;;;;;4954209;29;20201;-62
2022/03/04 08:40:22;;;;;;;3.50;3.38;;;;;;;;;;4953527;29;20545;-61
2022/03/04 08:42:48;;;;;;;2.47;2.38;;;;;;;;;;4953970;29;20261;-61
2022/03/04 08:45:14;;;;;;;2.20;2.20;;;;;;;;;;4953615;29;20608;-62
2022/03/04 08:47:43;;;;;;;4.90;4.60;;;;;;;;;;4953141;29;20415;-62
2022/03/04 08:50:09;;;;;;;5.05;4.78;;;;;;;;;;4952985;29;20345;-63
2022/03/04 08:52:35;;;;;;;1.10;1.10;;;;;;;;;;4953714;29;20197;-62
2022/03/04 08:55:01;;;;;;;2.42;2.33;;;;;;;;;;4952465;29;20185;-62
2022/03/04 08:57:28;;;;;;;5.27;4.90;;;;;;;;;;4953284;29;20650;-63
2022/03/04 08:59:54;;;;;;;2.45;2.35;;;;;;;;;;4953967;29;20415;-62
2022/03/04 09:02:20;;;;;;;1.83;1.80;;;;;;;;;;4952807;29;20188;-62
2022/03/04 09:04:46;;;;;;;2.03;2.03;;;;;;;;;;4952687;29;20435;-62
2022/03/04 09:07:11;;;;;;;1.70;1.70;;;;;;;;;;4953426;29;20176;-62
2022/03/04 09:09:38;;;;;;;1.40;1.40;;;;;;;;;;4953081;29;20607;-63
2022/03/04 09:12:04;;;;;;;2.15;2.05;;;;;;;;;;4953056;29;21022;-63
2022/03/04 09:14:30;;;;;;;1.70;1.70;;;;;;;;;;4952788;29;20596;-63
2022/03/04 09:16:56;;;;;;;1.63;1.63;;;;;;;;;;4951444;29;20466;-64
2022/03/04 09:19:22;;;;;;;1.67;1.67;;;;;;;;;;4953378;29;20426;-63
2022/03/04 09:21:48;;;;;;;3.37;3.23;;;;;;;;;;4952607;29;20583;-64
2022/03/04 09:24:14;;;;;;;1.83;1.83;;;;;;;;;;4952907;29;20467;-63
2022/03/04 09:26:40;;;;;;;0.97;0.97;;;;;;;;;;4952754;29;20427;-62
2022/03/04 09:29:06;;;;;;;0.77;0.77;;;;;;;;;;4950095;28;21074;-62
2022/03/04 09:31:32;;;;;;;0.57;0.57;;;;;;;;;;4949349;28;20495;-63
2022/03/04 09:33:59;;;;;;;0.87;0.87;;;;;;;;;;4952709;29;20506;-63
2022/03/04 09:36:24;;;;;;;0.60;0.60;;;;;;;;;;4952840;29;20801;-63
2022/03/04 09:38:50;;;;;;;0.50;0.50;;;;;;;;;;4952986;29;20419;-62
2022/03/04 09:41:17;;;;;;;0.83;0.83;;;;;;;;;;4943935;29;20459;-62
2022/03/04 09:43:43;;;;;;;0.40;0.40;;;;;;;;;;4943232;29;20491;-62
2022/03/04 09:46:09;;;;;;;0.50;0.50;;;;;;;;;;4952344;29;20402;-62
2022/03/04 09:48:40;;;;;;;0.40;0.40;;;;;;;;;;4951279;29;20406;-62
2022/03/04 09:51:07;;;;;;;0.70;0.70;;;;;;;;;;4952018;29;20875;-63
2022/03/04 09:56:13;;;;;;;0.40;0.40;;;;;;;;;;4988450;28;20473;-60
2022/03/04 09:58:40;;;;;;;0.50;0.50;;;;;;;;;;4989506;28;20394;-60
2022/03/04 10:01:10;;;;;;;0.40;0.40;;;;;;;;;;4991307;28;20480;-60
2022/03/04 10:03:49;;;;;;;0.70;0.70;;;;;;;;;;4991124;28;20977;-60
2022/03/04 10:06:16;;;;;;;1.27;1.27;;;;;;;;;;4971281;28;20485;-60
2022/03/04 10:08:46;;;;;;;0.90;0.90;;;;;;;;;;4966920;28;20846;-60
2022/03/04 10:11:12;;;;;;;0.73;0.73;;;;;;;;;;4971097;28;20458;-60
2022/03/04 10:13:42;;;;;;;0.73;0.73;;;;;;;;;;4971946;28;20739;-61
2022/03/04 10:16:09;;;;;;;1.53;1.53;;;;;;;;;;4970840;28;20438;-59
2022/03/04 10:18:35;;;;;;;0.70;0.70;;;;;;;;;;4971607;28;20430;-61
2022/03/04 10:21:00;;;;;;;2.20;2.10;;;;;;;;;;4970490;28;20438;-60
2022/03/04 10:23:27;;;;;;;0.77;0.77;;;;;;;;;;4970981;28;20548;-60
2022/03/04 10:25:58;;;;;;;0.30;0.30;;;;;;;;;;4971037;28;20436;-60
2022/03/04 10:28:28;;;;;;;0.40;0.40;;;;;;;;;;4971164;28;20418;-60
2022/03/04 10:30:54;;;;;;;0.47;0.47;;;;;;;;;;4970875;28;20427;-60
2022/03/04 10:33:30;;;;;;;0.40;0.40;;;;;;;;;;4971181;28;20542;-59
2022/03/04 10:36:12;;;;;;;0.30;0.30;;;;;;;;;;4971790;28;20480;-60
2022/03/04 10:38:39;;;;;;;0.30;0.30;;;;;;;;;;4971540;28;20438;-60
2022/03/04 10:41:21;;;;;;;0.40;0.40;;;;;;;;;;4971563;28;20423;-61
2022/03/04 10:43:47;;;;;;;1.10;1.10;;;;;;;;;;4972672;28;20468;-60
2022/03/04 10:46:14;;;;;;;0.40;0.40;;;;;;;;;;4974721;28;20794;-60
2022/03/04 10:48:50;;;;;;;0.30;0.30;;;;;;;;;;4974673;28;20517;-60
2022/03/04 10:51:16;;;;;;;0.37;0.37;;;;;;;;;;4973952;28;20401;-62
2022/03/04 10:53:42;;;;;;;0.40;0.40;;;;;;;;;;4974836;28;20409;-60
2022/03/04 10:56:08;;;;;;;0.50;0.50;;;;;;;;;;4973834;28;20472;-59
2022/03/04 10:58:35;;;;;;;0.53;0.53;;;;;;;;;;4975066;28;20485;-64
2022/03/04 11:01:08;;;;;;;0.40;0.40;;;;;;;;;;4974491;28;20438;-62
2022/03/04 11:03:34;;;;;;;0.40;0.40;;;;;;;;;;4974765;28;20562;-62
2022/03/04 11:06:03;;;;;;;0.40;0.40;;;;;;;;;;4974006;28;20425;-61
2022/03/04 11:08:29;;;;;;;0.40;0.40;;;;;;;;;;4974686;28;20397;-62
2022/03/04 11:10:56;;;;;;;0.40;0.40;;;;;;;;;;4974491;28;20530;-60
2022/03/04 11:13:22;;;;;;;0.33;0.33;;;;;;;;;;4975066;28;20393;-61
2022/03/04 11:15:49;;;;;;;0.30;0.30;;;;;;;;;;4974377;28;20477;-61
2022/03/04 11:18:19;;;;;;;0.30;0.30;;;;;;;;;;4974565;28;20413;-61
2022/03/04 11:20:46;;;;;;;0.40;0.40;;;;;;;;;;4974500;28;20581;-60
2022/03/04 11:23:20;;;;;;;0.40;0.40;;;;;;;;;;4974405;28;20473;-61
2022/03/04 11:25:52;;;;;;;0.30;0.30;;;;;;;;;;4974216;28;20421;-62
2022/03/04 11:28:20;;;;;;;0.30;0.30;;;;;;;;;;4974391;28;20437;-62
2022/03/04 11:30:47;;;;;;;0.30;0.30;;;;;;;;;;4973880;28;20430;-62
2022/03/04 11:33:26;;;;;;;0.40;0.40;;;;;;;;;;4974393;28;20381;-62
2022/03/04 11:35:52;;;;;;;0.30;0.30;;;;;;;;;;4972126;28;20510;-62
2022/03/04 11:38:38;;;;;;;0.40;0.40;;;;;;;;;;4974648;28;20411;-61
2022/03/04 11:41:05;;;;;;;0.30;0.30;;;;;;;;;;4963324;28;20434;-61
2022/03/04 11:43:47;;;;;;;0.30;0.30;;;;;;;;;;4974085;28;20923;-62
2022/03/04 11:46:18;;;;;;;0.40;0.40;;;;;;;;;;4965028;28;20453;-62
2022/03/04 11:48:44;;;;;;;0.40;0.40;;;;;;;;;;4974112;28;20501;-62
2022/03/04 11:51:17;;;;;;;0.50;0.50;;;;;;;;;;4973899;28;20393;-61
2022/03/04 11:53:43;;;;;;;0.50;0.50;;;;;;;;;;4973585;28;20419;-61
2022/03/04 11:56:15;;;;;;;0.40;0.40;;;;;;;;;;4973276;28;20810;-63
2022/03/04 11:58:57;;;;;;;0.30;0.30;;;;;;;;;;4974318;28;20409;-60
2022/03/04 12:01:27;;;;;;;0.30;0.30;;;;;;;;;;4973531;28;20544;-61
2022/03/04 12:04:09;;;;;;;0.40;0.40;;;;;;;;;;4973246;28;20465;-61
2022/03/04 12:06:35;;;;;;;0.40;0.40;;;;;;;;;;4967744;28;20405;-61
2022/03/04 12:09:19;;;;;;;0.30;0.30;;;;;;;;;;4969531;28;20505;-61
2022/03/04 12:12:04;;;;;;;0.30;0.30;;;;;;;;;;4970207;28;20907;-61
2022/03/04 12:14:30;;;;;;;0.40;0.40;;;;;;;;;;4964619;28;20417;-61
2022/03/04 12:16:57;;;;;;;0.37;0.37;;;;;;;;;;4964291;28;20530;-60
2022/03/04 12:19:30;;;;;;;0.40;0.40;;;;;;;;;;4965071;28;20457;-60
2022/03/04 12:21:58;;;;;;;0.30;0.30;;;;;;;;;;4962401;28;20426;-61
2022/03/04 12:24:28;;;;;;;0.40;0.40;;;;;;;;;;4965277;28;20594;-61
2022/03/04 12:26:54;;;;;;;0.33;0.33;;;;;;;;;;4965499;28;20978;-60
2022/03/04 12:29:21;;;;;;;0.30;0.30;;;;;;;;;;4961894;28;20420;-60
2022/03/04 12:31:48;;;;;;;0.30;0.30;;;;;;;;;;4963669;28;20415;-61
2022/03/04 12:34:17;;;;;;;0.40;0.40;;;;;;;;;;4962938;28;20483;-61
2022/03/04 12:36:43;;;;;;;0.40;0.40;;;;;;;;;;4960893;28;20425;-62
2022/03/04 12:39:09;;;;;;;0.40;0.40;;;;;;;;;;4959278;28;20427;-62
2022/03/04 12:41:35;;;;;;;0.30;0.30;;;;;;;;;;4965819;28;20431;-62
2022/03/04 12:44:05;;;;;;;0.40;0.40;;;;;;;;;;4965793;28;20812;-61
2022/03/04 12:46:34;;;;;;;0.50;0.50;;;;;;;;;;4964243;28;21009;-61
2022/03/04 12:49:00;;;;;;;0.40;0.40;;;;;;;;;;4961871;28;20471;-60
2022/03/04 12:51:33;;;;;;;0.40;0.40;;;;;;;;;;4971748;28;20433;-61
2022/03/04 12:54:04;;;;;;;0.50;0.50;;;;;;;;;;4972885;28;20430;-61
2022/03/04 12:56:30;;;;;;;0.40;0.40;;;;;;;;;;4955172;28;20827;-61
2022/03/04 12:58:58;;;;;;;0.40;0.40;;;;;;;;;;4972024;28;20435;-60
2022/03/04 13:01:25;;;;;;;0.50;0.50;;;;;;;;;;4972478;28;20415;-61
2022/03/04 13:03:52;;;;;;;0.50;0.50;;;;;;;;;;4972029;28;20468;-61
2022/03/04 13:06:19;;;;;;;0.40;0.40;;;;;;;;;;4972186;28;20186;-61
2022/03/04 13:08:45;;;;;;;0.40;0.40;;;;;;;;;;4971686;28;20427;-60
2022/03/04 13:11:12;;;;;;;0.40;0.40;;;;;;;;;;4972600;28;20407;-60
2022/03/04 13:14:04;;;;;;;0.50;0.50;;;;;;;;;;4972040;28;20427;-60
2022/03/04 13:16:32;;;;;;;0.30;0.30;;;;;;;;;;4967040;28;20846;-59
2022/03/04 13:19:00;;;;;;;0.50;0.50;;;;;;;;;;4952964;28;20673;-59
2022/03/04 13:21:39;;;;;;;0.40;0.40;;;;;;;;;;4970609;28;20540;-59
2022/03/04 13:24:09;;;;;;;0.55;0.55;;;;;;;;;;4969343;28;20706;-60
2022/03/04 13:26:36;;;;;;;0.55;0.55;;;;;;;;;;4971404;28;20247;-60
2022/03/04 13:29:03;;;;;;;0.50;0.50;;;;;;;;;;4971982;28;20183;-60
2022/03/04 13:31:31;;;;;;;0.50;0.50;;;;;;;;;;4971883;28;20662;-60
2022/03/04 13:34:07;;;;;;;0.60;0.60;;;;;;;;;;4967059;28;20250;-59
2022/03/04 13:36:39;;;;;;;0.40;0.40;;;;;;;;;;4971617;28;20183;-60
2022/03/04 13:39:09;;;;;;;0.40;0.40;;;;;;;;;;4970284;28;20195;-61
2022/03/04 13:41:37;;;;;;;0.40;0.40;;;;;;;;;;4969499;28;20205;-61
2022/03/04 13:44:13;;;;;;;0.50;0.50;;;;;;;;;;4971417;28;20211;-61
2022/03/04 13:46:58;;;;;;;0.50;0.50;;;;;;;;;;4971376;28;20179;-61
2022/03/04 13:49:23;;;;;;;0.40;0.40;;;;;;;;;;4970770;28;20195;-60
2022/03/04 13:52:00;;;;;;;0.40;0.40;;;;;;;;;;4971497;28;20193;-60
2022/03/04 13:54:44;;;;;;;0.50;0.50;;;;;;;;;;4963418;28;20454;-60
2022/03/04 13:57:23;;;;;;;0.50;0.50;;;;;;;;;;4969614;28;20234;-58
2022/03/04 13:59:49;;;;;;;0.50;0.50;;;;;;;;;;4971513;28;20168;-60
2022/03/04 14:02:15;;;;;;;0.40;0.40;;;;;;;;;;4970511;28;20207;-61
2022/03/04 14:04:54;;;;;;;0.40;0.40;;;;;;;;;;4970694;28;20231;-60
2022/03/04 14:07:21;;;;;;;0.50;0.50;;;;;;;;;;4970348;28;20430;-60
2022/03/04 14:09:50;;;;;;;0.40;0.40;;;;;;;;;;4970490;28;20187;-62
2022/03/04 14:12:16;;;;;;;0.60;0.60;;;;;;;;;;4970684;28;20198;-61
2022/03/04 14:14:42;;;;;;;0.40;0.40;;;;;;;;;;4968983;28;20202;-58
2022/03/04 14:17:08;;;;;;;0.40;0.40;;;;;;;;;;4972415;28;20440;-61
2022/03/04 14:19:34;;;;;;;0.40;0.40;;;;;;;;;;4980080;28;20440;-58
2022/03/04 14:22:00;;;;;;;0.50;0.50;;;;;;;;;;4964602;28;20266;-60
2022/03/04 14:24:26;;;;;;;0.40;0.40;;;;;;;;;;4967097;28;20287;-61
2022/03/04 14:26:52;;;;;;;0.50;0.50;;;;;;;;;;4968266;28;20553;-61
2022/03/04 14:29:21;;;;;;;0.50;0.50;;;;;;;;;;4981141;28;20472;-61
2022/03/04 14:31:48;;;;;;;0.47;0.47;;;;;;;;;;4981087;28;20462;-60
2022/03/04 14:34:14;;;;;;;0.50;0.50;;;;;;;;;;4974858;28;20199;-60
2022/03/04 14:36:41;;;;;;;0.60;0.60;;;;;;;;;;4973425;28;20205;-60
2022/03/04 14:39:07;;;;;;;0.50;0.50;;;;;;;;;;4981772;28;20634;-60
2022/03/04 14:41:33;;;;;;;0.50;0.50;;;;;;;;;;4972720;28;20191;-61
2022/03/04 14:43:59;;;;;;;0.50;0.50;;;;;;;;;;4971755;28;20565;-60
2022/03/04 14:46:25;;;;;;;0.40;0.40;;;;;;;;;;4971277;28;20442;-59
2022/03/04 14:48:53;;;;;;;0.50;0.50;;;;;;;;;;4973358;28;20826;-61